Waveland, Indiana
Current Conditions -  °F | °C
As of 3:55 PM on Sunday 23 Nov 2014 (Local Time) from K4I7 Reporting Station
Light Rain Light Rain  
Wind Chill: 10°   Ceiling: 500
Heat Index: 10°   Visibility: 2.5mi
Dew Point: 10°   Wind: 8mph
Humidity: 100%   Direction: 130°SE
Pressure: 29.52"   Gusts: NA
Location:  39.88°N, 87.04°W
Report Text: K4I7 232055Z AUTO 13007KT 2 1/2SM -RA BKN005 OVC010 10/10 A2952 RMK AO2 VIS 2V3 P0024
Loading
Personal Weather Stations






























Interactive Weather Map New forecast layout! Learn more

10-Day Weather Forecast

Advertisements
Track Severe Weather on mobile